sensor_id;sensor_type;location;lat;lon;timestamp;temperature;humidity
51615;DHT22;37695;52.960;6.188;2023-11-21T14:29:19;16.00;99.90
51615;DHT22;37695;52.960;6.188;2023-11-21T14:31:46;13.10;99.90
51615;DHT22;37695;52.960;6.188;2023-11-21T14:34:12;12.40;99.90
51615;DHT22;37695;52.960;6.188;2023-11-21T14:36:39;11.80;99.90
51615;DHT22;37695;52.960;6.188;2023-11-21T14:39:08;11.40;99.90
51615;DHT22;37695;52.960;6.188;2023-11-21T14:41:41;10.90;99.90
51615;DHT22;37695;52.960;6.188;2023-11-21T14:44:08;10.60;99.90
51615;DHT22;37695;52.960;6.188;2023-11-21T14:46:37;10.40;99.90
51615;DHT22;37695;52.960;6.188;2023-11-21T14:49:05;10.20;99.90
51615;DHT22;37695;52.960;6.188;2023-11-21T14:51:46;10.10;99.90
51615;DHT22;37695;52.960;6.188;2023-11-21T14:54:42;9.90;99.90
51615;DHT22;37695;52.960;6.188;2023-11-21T14:57:12;9.80;99.90
51615;DHT22;37695;52.960;6.188;2023-11-21T14:59:44;9.70;99.90
51615;DHT22;37695;52.960;6.188;2023-11-21T15:02:13;9.60;99.90
51615;DHT22;37695;52.960;6.188;2023-11-21T15:04:45;9.50;99.90
51615;DHT22;37695;52.960;6.188;2023-11-21T15:07:11;9.50;99.90
51615;DHT22;37695;52.960;6.188;2023-11-21T15:09:37;9.40;99.90
51615;DHT22;37695;52.960;6.188;2023-11-21T15:12:08;9.30;99.90
51615;DHT22;37695;52.960;6.188;2023-11-21T15:14:50;9.30;99.90
51615;DHT22;37695;52.960;6.188;2023-11-21T15:17:20;9.20;99.90
51615;DHT22;37695;52.960;6.188;2023-11-21T15:19:51;9.20;99.90
51615;DHT22;37695;52.960;6.188;2023-11-21T15:22:16;9.10;99.90
51615;DHT22;37695;52.960;6.188;2023-11-21T15:24:43;9.00;99.90
51615;DHT22;37695;52.960;6.188;2023-11-21T15:27:11;9.00;99.90
51615;DHT22;37695;52.960;6.188;2023-11-21T15:29:38;8.90;99.90
51615;DHT22;37695;52.960;6.188;2023-11-21T15:32:05;8.90;99.90
51615;DHT22;37695;52.960;6.188;2023-11-21T15:34:32;8.80;99.90
51615;DHT22;37695;52.960;6.188;2023-11-21T15:36:58;8.80;99.90
51615;DHT22;37695;52.960;6.188;2023-11-21T15:39:23;8.80;99.90
51615;DHT22;37695;52.960;6.188;2023-11-21T15:41:54;8.80;99.90
51615;DHT22;37695;52.960;6.188;2023-11-21T15:44:19;8.80;99.90
51615;DHT22;37695;52.960;6.188;2023-11-21T15:46:45;8.80;99.90
51615;DHT22;37695;52.960;6.188;2023-11-21T15:49:11;8.80;99.90
51615;DHT22;37695;52.960;6.188;2023-11-21T15:51:43;8.80;99.90
51615;DHT22;37695;52.960;6.188;2023-11-21T15:54:19;8.80;99.90
51615;DHT22;37695;52.960;6.188;2023-11-21T15:56:46;8.70;99.90
51615;DHT22;37695;52.960;6.188;2023-11-21T15:59:12;8.70;99.90
51615;DHT22;37695;52.960;6.188;2023-11-21T16:01:39;8.70;99.90
51615;DHT22;37695;52.960;6.188;2023-11-21T16:04:11;8.70;99.90
51615;DHT22;37695;52.960;6.188;2023-11-21T16:06:41;8.70;99.90
51615;DHT22;37695;52.960;6.188;2023-11-21T16:09:06;8.70;99.90
51615;DHT22;37695;52.960;6.188;2023-11-21T16:11:38;8.70;99.90
51615;DHT22;37695;52.960;6.188;2023-11-21T16:14:04;8.70;99.90
51615;DHT22;37695;52.960;6.188;2023-11-21T16:16:29;8.60;99.90
51615;DHT22;37695;52.960;6.188;2023-11-21T16:18:55;8.60;99.90
51615;DHT22;37695;52.960;6.188;2023-11-21T16:21:20;8.50;99.90
51615;DHT22;37695;52.960;6.188;2023-11-21T16:23:46;8.40;99.90
51615;DHT22;37695;52.960;6.188;2023-11-21T16:26:11;8.40;99.90
51615;DHT22;37695;52.960;6.188;2023-11-21T16:28:38;8.40;99.90
51615;DHT22;37695;52.960;6.188;2023-11-21T16:31:04;8.40;99.90
51615;DHT22;37695;52.960;6.188;2023-11-21T16:33:29;8.30;99.90
51615;DHT22;37695;52.960;6.188;2023-11-21T16:35:55;8.30;99.90
51615;DHT22;37695;52.960;6.188;2023-11-21T16:38:20;8.20;99.90
51615;DHT22;37695;52.960;6.188;2023-11-21T16:40:46;8.10;99.90
51615;DHT22;37695;52.960;6.188;2023-11-21T16:43:12;8.00;99.90
51615;DHT22;37695;52.960;6.188;2023-11-21T16:45:38;8.00;99.90
51615;DHT22;37695;52.960;6.188;2023-11-21T16:48:03;7.90;99.90
51615;DHT22;37695;52.960;6.188;2023-11-21T16:50:29;7.90;99.90
51615;DHT22;37695;52.960;6.188;2023-11-21T16:52:55;7.70;99.90
51615;DHT22;37695;52.960;6.188;2023-11-21T16:55:20;7.70;99.90
51615;DHT22;37695;52.960;6.188;2023-11-21T16:57:46;7.60;99.90
51615;DHT22;37695;52.960;6.188;2023-11-21T17:00:11;7.50;99.90
51615;DHT22;37695;52.960;6.188;2023-11-21T17:02:38;7.50;99.90
51615;DHT22;37695;52.960;6.188;2023-11-21T17:05:05;7.40;99.90
51615;DHT22;37695;52.960;6.188;2023-11-21T17:07:31;7.30;99.90
51615;DHT22;37695;52.960;6.188;2023-11-21T17:09:58;7.30;99.90
51615;DHT22;37695;52.960;6.188;2023-11-21T17:12:23;7.30;99.90
51615;DHT22;37695;52.960;6.188;2023-11-21T17:14:49;7.20;99.90
51615;DHT22;37695;52.960;6.188;2023-11-21T17:17:15;7.20;99.90
51615;DHT22;37695;52.960;6.188;2023-11-21T17:19:41;7.10;99.90
51615;DHT22;37695;52.960;6.188;2023-11-21T17:22:08;7.00;99.90
51615;DHT22;37695;52.960;6.188;2023-11-21T17:24:34;7.00;99.90
51615;DHT22;37695;52.960;6.188;2023-11-21T17:27:05;6.90;99.90
51615;DHT22;37695;52.960;6.188;2023-11-21T17:29:31;6.80;99.90
51615;DHT22;37695;52.960;6.188;2023-11-21T17:31:57;6.80;99.90
51615;DHT22;37695;52.960;6.188;2023-11-21T17:34:22;6.70;99.90
51615;DHT22;37695;52.960;6.188;2023-11-21T17:36:48;6.70;99.90
51615;DHT22;37695;52.960;6.188;2023-11-21T17:39:13;6.60;99.90
51615;DHT22;37695;52.960;6.188;2023-11-21T17:41:39;6.60;99.90
51615;DHT22;37695;52.960;6.188;2023-11-21T17:44:05;6.50;99.90
51615;DHT22;37695;52.960;6.188;2023-11-21T17:46:32;6.50;99.90
51615;DHT22;37695;52.960;6.188;2023-11-21T17:48:58;6.50;99.90
51615;DHT22;37695;52.960;6.188;2023-11-21T17:51:24;6.50;99.90
51615;DHT22;37695;52.960;6.188;2023-11-21T17:53:50;6.50;99.90
51615;DHT22;37695;52.960;6.188;2023-11-21T17:56:17;6.40;99.90
51615;DHT22;37695;52.960;6.188;2023-11-21T17:58:47;6.30;99.90
51615;DHT22;37695;52.960;6.188;2023-11-21T18:01:13;6.30;99.90
51615;DHT22;37695;52.960;6.188;2023-11-21T18:03:39;6.30;99.90
51615;DHT22;37695;52.960;6.188;2023-11-21T18:06:06;6.20;99.90
51615;DHT22;37695;52.960;6.188;2023-11-21T18:08:32;6.20;99.90
51615;DHT22;37695;52.960;6.188;2023-11-21T18:11:02;6.20;99.90
51615;DHT22;37695;52.960;6.188;2023-11-21T18:13:30;6.10;99.90
51615;DHT22;37695;52.960;6.188;2023-11-21T18:15:55;6.00;99.90
51615;DHT22;37695;52.960;6.188;2023-11-21T18:18:21;6.00;99.90
51615;DHT22;37695;52.960;6.188;2023-11-21T18:20:46;5.90;99.90
51615;DHT22;37695;52.960;6.188;2023-11-21T18:23:12;5.90;99.90
51615;DHT22;37695;52.960;6.188;2023-11-21T18:25:37;5.90;99.90
51615;DHT22;37695;52.960;6.188;2023-11-21T18:28:04;5.80;99.90
51615;DHT22;37695;52.960;6.188;2023-11-21T18:30:30;5.80;99.90
51615;DHT22;37695;52.960;6.188;2023-11-21T18:32:55;5.80;99.90
51615;DHT22;37695;52.960;6.188;2023-11-21T18:35:21;5.90;99.90
51615;DHT22;37695;52.960;6.188;2023-11-21T18:37:47;5.90;99.90
51615;DHT22;37695;52.960;6.188;2023-11-21T18:40:13;6.00;99.90
51615;DHT22;37695;52.960;6.188;2023-11-21T18:42:40;6.00;99.90
51615;DHT22;37695;52.960;6.188;2023-11-21T18:45:06;6.00;99.90
51615;DHT22;37695;52.960;6.188;2023-11-21T18:47:32;6.00;99.90
51615;DHT22;37695;52.960;6.188;2023-11-21T18:49:58;6.10;99.90
51615;DHT22;37695;52.960;6.188;2023-11-21T18:52:23;6.10;99.90
51615;DHT22;37695;52.960;6.188;2023-11-21T18:54:52;6.10;99.90
51615;DHT22;37695;52.960;6.188;2023-11-21T18:57:18;6.20;99.90
51615;DHT22;37695;52.960;6.188;2023-11-21T18:59:44;6.20;99.90
51615;DHT22;37695;52.960;6.188;2023-11-21T19:02:10;6.20;99.90
51615;DHT22;37695;52.960;6.188;2023-11-21T19:04:39;6.20;99.90
51615;DHT22;37695;52.960;6.188;2023-11-21T19:07:05;6.20;99.90
51615;DHT22;37695;52.960;6.188;2023-11-21T19:09:31;6.20;99.90
51615;DHT22;37695;52.960;6.188;2023-11-21T19:11:59;6.30;99.90
51615;DHT22;37695;52.960;6.188;2023-11-21T19:14:25;6.30;99.90
51615;DHT22;37695;52.960;6.188;2023-11-21T19:16:50;6.30;99.90
51615;DHT22;37695;52.960;6.188;2023-11-21T19:19:16;6.30;99.90
51615;DHT22;37695;52.960;6.188;2023-11-21T19:21:45;6.30;99.90
51615;DHT22;37695;52.960;6.188;2023-11-21T19:24:11;6.20;99.90
51615;DHT22;37695;52.960;6.188;2023-11-21T19:26:39;6.20;99.90
51615;DHT22;37695;52.960;6.188;2023-11-21T19:29:05;6.20;99.90
51615;DHT22;37695;52.960;6.188;2023-11-21T19:31:31;6.10;99.90
51615;DHT22;37695;52.960;6.188;2023-11-21T19:33:57;6.10;99.90
51615;DHT22;37695;52.960;6.188;2023-11-21T19:36:23;6.10;99.90
51615;DHT22;37695;52.960;6.188;2023-11-21T19:38:49;6.10;99.90
51615;DHT22;37695;52.960;6.188;2023-11-21T19:41:17;6.10;99.90
51615;DHT22;37695;52.960;6.188;2023-11-21T19:43:44;6.00;99.90
51615;DHT22;37695;52.960;6.188;2023-11-21T19:46:11;6.00;99.90
51615;DHT22;37695;52.960;6.188;2023-11-21T19:48:37;6.00;99.90
51615;DHT22;37695;52.960;6.188;2023-11-21T19:51:03;6.00;99.90
51615;DHT22;37695;52.960;6.188;2023-11-21T19:53:32;6.00;99.90
51615;DHT22;37695;52.960;6.188;2023-11-21T19:55:58;5.90;99.90
51615;DHT22;37695;52.960;6.188;2023-11-21T19:58:23;5.90;99.90
51615;DHT22;37695;52.960;6.188;2023-11-21T20:00:50;5.80;99.90
51615;DHT22;37695;52.960;6.188;2023-11-21T20:03:16;5.70;99.90
51615;DHT22;37695;52.960;6.188;2023-11-21T20:05:44;5.70;99.90
51615;DHT22;37695;52.960;6.188;2023-11-21T20:08:10;5.70;99.90
51615;DHT22;37695;52.960;6.188;2023-11-21T20:10:36;5.60;99.90
51615;DHT22;37695;52.960;6.188;2023-11-21T20:13:03;5.60;99.90
51615;DHT22;37695;52.960;6.188;2023-11-21T20:15:29;5.60;99.90
51615;DHT22;37695;52.960;6.188;2023-11-21T20:17:55;5.50;99.90
51615;DHT22;37695;52.960;6.188;2023-11-21T20:20:20;5.50;99.90
51615;DHT22;37695;52.960;6.188;2023-11-21T20:22:46;5.40;99.90
51615;DHT22;37695;52.960;6.188;2023-11-21T20:25:13;5.30;99.90
51615;DHT22;37695;52.960;6.188;2023-11-21T20:27:40;5.30;99.90
51615;DHT22;37695;52.960;6.188;2023-11-21T20:30:06;5.20;99.90
51615;DHT22;37695;52.960;6.188;2023-11-21T20:32:34;5.00;99.90
51615;DHT22;37695;52.960;6.188;2023-11-21T20:35:01;4.90;99.90
51615;DHT22;37695;52.960;6.188;2023-11-21T20:37:27;4.80;99.90
51615;DHT22;37695;52.960;6.188;2023-11-21T20:39:52;4.80;99.90
51615;DHT22;37695;52.960;6.188;2023-11-21T20:42:18;4.80;99.90
51615;DHT22;37695;52.960;6.188;2023-11-21T20:44:44;4.80;99.90
51615;DHT22;37695;52.960;6.188;2023-11-21T20:47:09;4.80;99.90
51615;DHT22;37695;52.960;6.188;2023-11-21T20:49:35;4.80;99.90
51615;DHT22;37695;52.960;6.188;2023-11-21T20:52:01;4.80;99.90
51615;DHT22;37695;52.960;6.188;2023-11-21T20:54:27;4.80;99.90
51615;DHT22;37695;52.960;6.188;2023-11-21T20:56:52;4.80;99.90
51615;DHT22;37695;52.960;6.188;2023-11-21T20:59:18;4.80;99.90
51615;DHT22;37695;52.960;6.188;2023-11-21T21:01:43;4.80;99.90
51615;DHT22;37695;52.960;6.188;2023-11-21T21:04:10;4.80;99.90
51615;DHT22;37695;52.960;6.188;2023-11-21T21:06:37;4.80;99.90
51615;DHT22;37695;52.960;6.188;2023-11-21T21:09:03;4.90;99.90
51615;DHT22;37695;52.960;6.188;2023-11-21T21:11:29;4.90;99.90
51615;DHT22;37695;52.960;6.188;2023-11-21T21:13:58;4.90;99.90
51615;DHT22;37695;52.960;6.188;2023-11-21T21:16:24;4.90;99.90
51615;DHT22;37695;52.960;6.188;2023-11-21T21:18:54;4.90;99.90
51615;DHT22;37695;52.960;6.188;2023-11-21T21:21:21;6.20;99.90
51615;DHT22;37695;52.960;6.188;2023-11-21T21:23:51;4.90;99.90
51615;DHT22;37695;52.960;6.188;2023-11-21T21:26:19;5.00;99.90
51615;DHT22;37695;52.960;6.188;2023-11-21T21:28:49;5.00;99.90
51615;DHT22;37695;52.960;6.188;2023-11-21T21:31:14;5.00;99.90
51615;DHT22;37695;52.960;6.188;2023-11-21T21:33:40;5.00;99.90
51615;DHT22;37695;52.960;6.188;2023-11-21T21:36:09;5.00;99.90
51615;DHT22;37695;52.960;6.188;2023-11-21T21:38:35;5.10;99.90
51615;DHT22;37695;52.960;6.188;2023-11-21T21:41:02;5.10;99.90
51615;DHT22;37695;52.960;6.188;2023-11-21T21:43:27;5.20;99.90
51615;DHT22;37695;52.960;6.188;2023-11-21T21:45:53;5.20;99.90
51615;DHT22;37695;52.960;6.188;2023-11-21T21:48:19;5.20;99.90
51615;DHT22;37695;52.960;6.188;2023-11-21T21:50:45;5.20;99.90
51615;DHT22;37695;52.960;6.188;2023-11-21T21:53:10;5.10;99.90
51615;DHT22;37695;52.960;6.188;2023-11-21T21:55:37;5.10;99.90
51615;DHT22;37695;52.960;6.188;2023-11-21T21:58:04;5.10;99.90
51615;DHT22;37695;52.960;6.188;2023-11-21T22:00:32;5.20;99.90
51615;DHT22;37695;52.960;6.188;2023-11-21T22:02:57;5.10;99.90
51615;DHT22;37695;52.960;6.188;2023-11-21T22:05:23;5.20;99.90
51615;DHT22;37695;52.960;6.188;2023-11-21T22:07:49;5.20;99.90
51615;DHT22;37695;52.960;6.188;2023-11-21T22:10:15;5.20;99.90
51615;DHT22;37695;52.960;6.188;2023-11-21T22:12:40;5.20;99.90
51615;DHT22;37695;52.960;6.188;2023-11-21T22:15:07;5.30;99.90
51615;DHT22;37695;52.960;6.188;2023-11-21T22:17:34;5.30;99.90
51615;DHT22;37695;52.960;6.188;2023-11-21T22:20:01;5.30;99.90
51615;DHT22;37695;52.960;6.188;2023-11-21T22:22:27;5.30;99.90
51615;DHT22;37695;52.960;6.188;2023-11-21T22:24:53;5.40;99.90
51615;DHT22;37695;52.960;6.188;2023-11-21T22:27:19;5.40;99.90
51615;DHT22;37695;52.960;6.188;2023-11-21T22:29:44;5.40;99.90
51615;DHT22;37695;52.960;6.188;2023-11-21T22:32:10;5.40;99.90
51615;DHT22;37695;52.960;6.188;2023-11-21T22:34:36;5.30;99.90
51615;DHT22;37695;52.960;6.188;2023-11-21T22:37:02;5.40;99.90
51615;DHT22;37695;52.960;6.188;2023-11-21T22:39:28;5.40;99.90
51615;DHT22;37695;52.960;6.188;2023-11-21T22:41:53;5.40;99.90
51615;DHT22;37695;52.960;6.188;2023-11-21T22:44:21;5.30;99.90
51615;DHT22;37695;52.960;6.188;2023-11-21T22:46:46;5.30;99.90
51615;DHT22;37695;52.960;6.188;2023-11-21T22:49:12;5.30;99.90
51615;DHT22;37695;52.960;6.188;2023-11-21T22:51:39;5.30;99.90
51615;DHT22;37695;52.960;6.188;2023-11-21T22:54:05;5.20;99.90
51615;DHT22;37695;52.960;6.188;2023-11-21T22:56:31;5.30;99.90
51615;DHT22;37695;52.960;6.188;2023-11-21T22:58:58;5.30;99.90
51615;DHT22;37695;52.960;6.188;2023-11-21T23:01:24;5.30;99.90
51615;DHT22;37695;52.960;6.188;2023-11-21T23:03:50;5.20;99.90
51615;DHT22;37695;52.960;6.188;2023-11-21T23:06:19;5.30;99.90
51615;DHT22;37695;52.960;6.188;2023-11-21T23:08:46;5.20;99.90
51615;DHT22;37695;52.960;6.188;2023-11-21T23:11:11;5.20;99.90
51615;DHT22;37695;52.960;6.188;2023-11-21T23:13:39;5.20;99.90
51615;DHT22;37695;52.960;6.188;2023-11-21T23:16:05;5.20;99.90
51615;DHT22;37695;52.960;6.188;2023-11-21T23:18:31;5.20;99.90
51615;DHT22;37695;52.960;6.188;2023-11-21T23:20:58;5.20;99.90
51615;DHT22;37695;52.960;6.188;2023-11-21T23:23:24;5.20;99.90
51615;DHT22;37695;52.960;6.188;2023-11-21T23:25:54;5.30;99.90
51615;DHT22;37695;52.960;6.188;2023-11-21T23:28:20;5.30;99.90
51615;DHT22;37695;52.960;6.188;2023-11-21T23:30:50;5.20;99.90
51615;DHT22;37695;52.960;6.188;2023-11-21T23:33:18;5.30;99.90
51615;DHT22;37695;52.960;6.188;2023-11-21T23:35:49;5.30;99.90
51615;DHT22;37695;52.960;6.188;2023-11-21T23:38:15;5.30;99.90
51615;DHT22;37695;52.960;6.188;2023-11-21T23:40:41;5.30;99.90
51615;DHT22;37695;52.960;6.188;2023-11-21T23:43:08;5.30;99.90
51615;DHT22;37695;52.960;6.188;2023-11-21T23:45:34;5.30;99.90
51615;DHT22;37695;52.960;6.188;2023-11-21T23:48:00;5.30;99.90
51615;DHT22;37695;52.960;6.188;2023-11-21T23:50:25;5.30;99.90
51615;DHT22;37695;52.960;6.188;2023-11-21T23:52:52;5.30;99.90
51615;DHT22;37695;52.960;6.188;2023-11-21T23:55:18;5.30;99.90
51615;DHT22;37695;52.960;6.188;2023-11-21T23:57:44;5.30;99.90
